sensor_id;sensor_type;location;lat;lon;timestamp;temperature;humidity
2010;DHT22;1008;47.404;8.502;2023-06-10T00:00:22;22.60;77.80
2010;DHT22;1008;47.404;8.502;2023-06-10T00:02:48;22.40;78.10
2010;DHT22;1008;47.404;8.502;2023-06-10T00:05:15;22.60;78.40
2010;DHT22;1008;47.404;8.502;2023-06-10T00:07:44;22.30;77.60
2010;DHT22;1008;47.404;8.502;2023-06-10T00:10:11;22.10;77.90
2010;DHT22;1008;47.404;8.502;2023-06-10T00:12:38;22.20;78.60
2010;DHT22;1008;47.404;8.502;2023-06-10T00:15:08;22.30;78.50
2010;DHT22;1008;47.404;8.502;2023-06-10T00:17:35;22.30;77.40
2010;DHT22;1008;47.404;8.502;2023-06-10T00:20:06;22.20;77.50
2010;DHT22;1008;47.404;8.502;2023-06-10T00:22:34;22.30;78.10
2010;DHT22;1008;47.404;8.502;2023-06-10T00:25:01;22.00;79.10
2010;DHT22;1008;47.404;8.502;2023-06-10T00:27:29;22.00;79.00
2010;DHT22;1008;47.404;8.502;2023-06-10T00:30:00;21.90;79.60
2010;DHT22;1008;47.404;8.502;2023-06-10T00:32:28;21.90;79.70
2010;DHT22;1008;47.404;8.502;2023-06-10T00:34:55;22.20;79.90
2010;DHT22;1008;47.404;8.502;2023-06-10T00:37:22;22.10;79.30
2010;DHT22;1008;47.404;8.502;2023-06-10T00:39:49;22.20;78.90
2010;DHT22;1008;47.404;8.502;2023-06-10T00:42:15;22.20;78.00
2010;DHT22;1008;47.404;8.502;2023-06-10T00:44:42;22.30;78.10
2010;DHT22;1008;47.404;8.502;2023-06-10T00:47:09;22.20;78.30
2010;DHT22;1008;47.404;8.502;2023-06-10T00:49:37;22.10;78.80
2010;DHT22;1008;47.404;8.502;2023-06-10T00:52:05;22.10;79.20
2010;DHT22;1008;47.404;8.502;2023-06-10T00:54:33;22.10;79.00
2010;DHT22;1008;47.404;8.502;2023-06-10T00:57:01;22.00;78.90
2010;DHT22;1008;47.404;8.502;2023-06-10T00:59:28;22.10;78.90
2010;DHT22;1008;47.404;8.502;2023-06-10T01:01:56;22.10;78.80
2010;DHT22;1008;47.404;8.502;2023-06-10T01:04:23;22.10;78.90
2010;DHT22;1008;47.404;8.502;2023-06-10T01:06:57;22.00;79.00
2010;DHT22;1008;47.404;8.502;2023-06-10T01:09:33;22.10;79.00
2010;DHT22;1008;47.404;8.502;2023-06-10T01:12:05;22.20;78.60
2010;DHT22;1008;47.404;8.502;2023-06-10T01:14:36;22.20;78.80
2010;DHT22;1008;47.404;8.502;2023-06-10T01:17:04;22.10;78.60
2010;DHT22;1008;47.404;8.502;2023-06-10T01:19:32;22.10;79.10
2010;DHT22;1008;47.404;8.502;2023-06-10T01:22:00;22.00;79.10
2010;DHT22;1008;47.404;8.502;2023-06-10T01:24:27;22.10;78.90
2010;DHT22;1008;47.404;8.502;2023-06-10T01:27:00;22.10;78.80
2010;DHT22;1008;47.404;8.502;2023-06-10T01:29:30;21.90;78.80
2010;DHT22;1008;47.404;8.502;2023-06-10T01:32:03;21.80;78.90
2010;DHT22;1008;47.404;8.502;2023-06-10T01:34:35;21.70;80.10
2010;DHT22;1008;47.404;8.502;2023-06-10T01:37:04;21.60;79.90
2010;DHT22;1008;47.404;8.502;2023-06-10T01:39:32;21.80;80.80
2010;DHT22;1008;47.404;8.502;2023-06-10T01:41:59;21.70;79.20
2010;DHT22;1008;47.404;8.502;2023-06-10T01:44:27;21.70;79.70
2010;DHT22;1008;47.404;8.502;2023-06-10T01:46:54;21.50;79.70
2010;DHT22;1008;47.404;8.502;2023-06-10T01:49:21;21.50;80.00
2010;DHT22;1008;47.404;8.502;2023-06-10T01:51:49;21.30;80.30
2010;DHT22;1008;47.404;8.502;2023-06-10T01:54:17;21.40;80.70
2010;DHT22;1008;47.404;8.502;2023-06-10T01:56:44;21.40;80.60
2010;DHT22;1008;47.404;8.502;2023-06-10T01:59:11;21.50;80.50
2010;DHT22;1008;47.404;8.502;2023-06-10T02:01:38;21.50;80.30
2010;DHT22;1008;47.404;8.502;2023-06-10T02:04:04;21.40;80.50
2010;DHT22;1008;47.404;8.502;2023-06-10T02:06:31;21.60;80.70
2010;DHT22;1008;47.404;8.502;2023-06-10T02:08:58;21.40;81.00
2010;DHT22;1008;47.404;8.502;2023-06-10T02:11:26;21.30;80.70
2010;DHT22;1008;47.404;8.502;2023-06-10T02:13:53;21.40;80.40
2010;DHT22;1008;47.404;8.502;2023-06-10T02:16:20;21.30;80.80
2010;DHT22;1008;47.404;8.502;2023-06-10T02:18:47;21.30;81.00
2010;DHT22;1008;47.404;8.502;2023-06-10T02:21:14;21.00;81.10
2010;DHT22;1008;47.404;8.502;2023-06-10T02:23:41;21.00;81.40
2010;DHT22;1008;47.404;8.502;2023-06-10T02:26:07;21.00;81.60
2010;DHT22;1008;47.404;8.502;2023-06-10T02:28:36;20.90;82.00
2010;DHT22;1008;47.404;8.502;2023-06-10T02:31:02;20.90;82.00
2010;DHT22;1008;47.404;8.502;2023-06-10T02:33:29;21.00;82.20
2010;DHT22;1008;47.404;8.502;2023-06-10T02:35:58;20.80;82.70
2010;DHT22;1008;47.404;8.502;2023-06-10T02:38:24;20.80;82.60
2010;DHT22;1008;47.404;8.502;2023-06-10T02:40:51;20.70;82.60
2010;DHT22;1008;47.404;8.502;2023-06-10T02:43:18;20.70;82.90
2010;DHT22;1008;47.404;8.502;2023-06-10T02:45:46;20.60;82.80
2010;DHT22;1008;47.404;8.502;2023-06-10T02:48:13;20.70;83.10
2010;DHT22;1008;47.404;8.502;2023-06-10T02:50:40;20.50;83.30
2010;DHT22;1008;47.404;8.502;2023-06-10T02:53:07;20.50;83.10
2010;DHT22;1008;47.404;8.502;2023-06-10T02:55:33;20.30;83.30
2010;DHT22;1008;47.404;8.502;2023-06-10T02:58:00;20.50;83.70
2010;DHT22;1008;47.404;8.502;2023-06-10T03:00:28;20.40;83.70
2010;DHT22;1008;47.404;8.502;2023-06-10T03:02:56;20.30;83.50
2010;DHT22;1008;47.404;8.502;2023-06-10T03:05:23;20.30;84.30
2010;DHT22;1008;47.404;8.502;2023-06-10T03:07:50;20.40;84.10
2010;DHT22;1008;47.404;8.502;2023-06-10T03:10:17;20.50;84.20
2010;DHT22;1008;47.404;8.502;2023-06-10T03:12:44;20.40;84.00
2010;DHT22;1008;47.404;8.502;2023-06-10T03:15:11;20.40;84.10
2010;DHT22;1008;47.404;8.502;2023-06-10T03:17:37;20.30;84.10
2010;DHT22;1008;47.404;8.502;2023-06-10T03:20:07;20.30;84.50
2010;DHT22;1008;47.404;8.502;2023-06-10T03:22:35;20.30;84.50
2010;DHT22;1008;47.404;8.502;2023-06-10T03:25:04;20.30;84.20
2010;DHT22;1008;47.404;8.502;2023-06-10T03:27:30;20.40;84.40
2010;DHT22;1008;47.404;8.502;2023-06-10T03:29:58;20.50;84.50
2010;DHT22;1008;47.404;8.502;2023-06-10T03:32:25;20.50;83.90
2010;DHT22;1008;47.404;8.502;2023-06-10T03:34:52;20.60;84.20
2010;DHT22;1008;47.404;8.502;2023-06-10T03:37:23;20.60;83.90
2010;DHT22;1008;47.404;8.502;2023-06-10T03:39:50;20.70;84.10
2010;DHT22;1008;47.404;8.502;2023-06-10T03:42:17;20.80;84.30
2010;DHT22;1008;47.404;8.502;2023-06-10T03:44:44;20.70;84.50
2010;DHT22;1008;47.404;8.502;2023-06-10T03:47:10;20.70;84.80
2010;DHT22;1008;47.404;8.502;2023-06-10T03:49:38;20.70;85.10
2010;DHT22;1008;47.404;8.502;2023-06-10T03:52:06;20.70;85.30
2010;DHT22;1008;47.404;8.502;2023-06-10T03:54:34;20.70;85.20
2010;DHT22;1008;47.404;8.502;2023-06-10T03:57:01;20.60;84.90
2010;DHT22;1008;47.404;8.502;2023-06-10T03:59:28;20.60;85.10
2010;DHT22;1008;47.404;8.502;2023-06-10T04:01:55;20.70;85.20
2010;DHT22;1008;47.404;8.502;2023-06-10T04:04:23;20.70;85.20
2010;DHT22;1008;47.404;8.502;2023-06-10T04:06:50;20.70;85.30
2010;DHT22;1008;47.404;8.502;2023-06-10T04:09:16;20.70;86.00
2010;DHT22;1008;47.404;8.502;2023-06-10T04:11:44;20.60;86.20
2010;DHT22;1008;47.404;8.502;2023-06-10T04:14:11;20.70;86.60
2010;DHT22;1008;47.404;8.502;2023-06-10T04:16:39;20.70;86.60
2010;DHT22;1008;47.404;8.502;2023-06-10T04:19:06;20.70;87.10
2010;DHT22;1008;47.404;8.502;2023-06-10T04:21:33;21.00;88.00
2010;DHT22;1008;47.404;8.502;2023-06-10T04:23:59;20.60;87.80
2010;DHT22;1008;47.404;8.502;2023-06-10T04:26:27;20.40;88.10
2010;DHT22;1008;47.404;8.502;2023-06-10T04:28:55;20.40;89.90
2010;DHT22;1008;47.404;8.502;2023-06-10T04:31:22;20.50;90.00
2010;DHT22;1008;47.404;8.502;2023-06-10T04:33:48;20.60;90.20
2010;DHT22;1008;47.404;8.502;2023-06-10T04:36:15;20.60;90.20
2010;DHT22;1008;47.404;8.502;2023-06-10T04:38:42;20.50;90.40
2010;DHT22;1008;47.404;8.502;2023-06-10T04:41:09;20.40;90.70
2010;DHT22;1008;47.404;8.502;2023-06-10T04:43:35;20.50;90.90
2010;DHT22;1008;47.404;8.502;2023-06-10T04:46:04;20.30;90.90
2010;DHT22;1008;47.404;8.502;2023-06-10T04:48:30;20.50;92.10
2010;DHT22;1008;47.404;8.502;2023-06-10T04:51:00;20.10;91.70
2010;DHT22;1008;47.404;8.502;2023-06-10T04:53:27;19.80;92.10
2010;DHT22;1008;47.404;8.502;2023-06-10T04:55:55;19.70;92.60
2010;DHT22;1008;47.404;8.502;2023-06-10T04:58:22;19.70;93.40
2010;DHT22;1008;47.404;8.502;2023-06-10T05:00:49;19.80;93.10
2010;DHT22;1008;47.404;8.502;2023-06-10T05:03:17;20.10;93.10
2010;DHT22;1008;47.404;8.502;2023-06-10T05:05:44;20.30;92.70
2010;DHT22;1008;47.404;8.502;2023-06-10T05:08:11;20.40;92.60
2010;DHT22;1008;47.404;8.502;2023-06-10T05:10:37;20.10;92.80
2010;DHT22;1008;47.404;8.502;2023-06-10T05:13:04;20.20;92.90
2010;DHT22;1008;47.404;8.502;2023-06-10T05:15:31;20.50;93.10
2010;DHT22;1008;47.404;8.502;2023-06-10T05:17:58;20.70;92.70
2010;DHT22;1008;47.404;8.502;2023-06-10T05:20:26;20.80;92.50
2010;DHT22;1008;47.404;8.502;2023-06-10T05:22:54;20.80;92.50
2010;DHT22;1008;47.404;8.502;2023-06-10T05:25:21;20.90;92.40
2010;DHT22;1008;47.404;8.502;2023-06-10T05:27:48;20.60;92.60
2010;DHT22;1008;47.404;8.502;2023-06-10T05:30:14;20.80;92.70
2010;DHT22;1008;47.404;8.502;2023-06-10T05:32:44;21.00;92.40
2010;DHT22;1008;47.404;8.502;2023-06-10T05:35:10;21.00;92.20
2010;DHT22;1008;47.404;8.502;2023-06-10T05:37:38;20.90;92.20
2010;DHT22;1008;47.404;8.502;2023-06-10T05:40:06;21.00;92.10
2010;DHT22;1008;47.404;8.502;2023-06-10T05:42:33;21.10;92.50
2010;DHT22;1008;47.404;8.502;2023-06-10T05:45:00;21.10;92.50
2010;DHT22;1008;47.404;8.502;2023-06-10T05:47:27;21.20;92.20
2010;DHT22;1008;47.404;8.502;2023-06-10T05:49:54;21.10;91.80
2010;DHT22;1008;47.404;8.502;2023-06-10T05:52:21;21.30;92.10
2010;DHT22;1008;47.404;8.502;2023-06-10T05:54:49;21.40;91.80
2010;DHT22;1008;47.404;8.502;2023-06-10T05:57:16;21.40;92.20
2010;DHT22;1008;47.404;8.502;2023-06-10T05:59:43;21.60;92.30
2010;DHT22;1008;47.404;8.502;2023-06-10T06:02:10;21.80;92.00
2010;DHT22;1008;47.404;8.502;2023-06-10T06:04:36;21.80;91.90
2010;DHT22;1008;47.404;8.502;2023-06-10T06:07:03;21.70;91.60
2010;DHT22;1008;47.404;8.502;2023-06-10T06:09:31;21.90;91.50
2010;DHT22;1008;47.404;8.502;2023-06-10T06:11:59;21.80;91.20
2010;DHT22;1008;47.404;8.502;2023-06-10T06:14:26;21.80;91.50
2010;DHT22;1008;47.404;8.502;2023-06-10T06:16:52;21.90;91.60
2010;DHT22;1008;47.404;8.502;2023-06-10T06:19:19;21.90;91.80
2010;DHT22;1008;47.404;8.502;2023-06-10T06:21:46;22.00;91.70
2010;DHT22;1008;47.404;8.502;2023-06-10T06:24:13;22.10;91.50
2010;DHT22;1008;47.404;8.502;2023-06-10T06:26:40;22.20;91.50
2010;DHT22;1008;47.404;8.502;2023-06-10T06:29:08;22.20;90.90
2010;DHT22;1008;47.404;8.502;2023-06-10T06:31:35;22.20;90.90
2010;DHT22;1008;47.404;8.502;2023-06-10T06:34:02;22.20;91.00
2010;DHT22;1008;47.404;8.502;2023-06-10T06:36:29;22.10;91.30
2010;DHT22;1008;47.404;8.502;2023-06-10T06:38:55;21.90;91.30
2010;DHT22;1008;47.404;8.502;2023-06-10T06:41:24;22.00;91.80
2010;DHT22;1008;47.404;8.502;2023-06-10T06:43:51;22.10;91.30
2010;DHT22;1008;47.404;8.502;2023-06-10T06:46:19;22.10;91.60
2010;DHT22;1008;47.404;8.502;2023-06-10T06:48:46;22.30;91.60
2010;DHT22;1008;47.404;8.502;2023-06-10T06:51:13;22.60;91.50
2010;DHT22;1008;47.404;8.502;2023-06-10T06:53:40;23.00;91.00
2010;DHT22;1008;47.404;8.502;2023-06-10T06:56:10;22.60;90.40
2010;DHT22;1008;47.404;8.502;2023-06-10T06:58:36;22.40;90.80
2010;DHT22;1008;47.404;8.502;2023-06-10T07:01:03;22.60;90.60
2010;DHT22;1008;47.404;8.502;2023-06-10T07:03:31;22.60;90.50
2010;DHT22;1008;47.404;8.502;2023-06-10T07:05:58;22.80;90.60
2010;DHT22;1008;47.404;8.502;2023-06-10T07:08:25;22.60;91.00
2010;DHT22;1008;47.404;8.502;2023-06-10T07:10:51;22.60;90.60
2010;DHT22;1008;47.404;8.502;2023-06-10T07:13:18;22.60;90.70
2010;DHT22;1008;47.404;8.502;2023-06-10T07:15:46;22.80;90.30
2010;DHT22;1008;47.404;8.502;2023-06-10T07:18:15;23.00;90.30
2010;DHT22;1008;47.404;8.502;2023-06-10T07:20:43;23.10;90.20
2010;DHT22;1008;47.404;8.502;2023-06-10T07:23:10;23.20;89.50
2010;DHT22;1008;47.404;8.502;2023-06-10T07:25:37;23.20;90.30
2010;DHT22;1008;47.404;8.502;2023-06-10T07:28:04;23.10;87.90
2010;DHT22;1008;47.404;8.502;2023-06-10T07:30:30;23.00;88.80
2010;DHT22;1008;47.404;8.502;2023-06-10T07:32:57;23.00;88.80
2010;DHT22;1008;47.404;8.502;2023-06-10T07:35:24;23.00;90.40
2010;DHT22;1008;47.404;8.502;2023-06-10T07:37:52;23.20;90.60
2010;DHT22;1008;47.404;8.502;2023-06-10T07:40:19;23.10;90.20
2010;DHT22;1008;47.404;8.502;2023-06-10T07:42:46;23.20;90.50
2010;DHT22;1008;47.404;8.502;2023-06-10T07:45:12;23.20;89.90
2010;DHT22;1008;47.404;8.502;2023-06-10T07:47:39;23.20;90.30
2010;DHT22;1008;47.404;8.502;2023-06-10T07:50:06;23.00;89.90
2010;DHT22;1008;47.404;8.502;2023-06-10T07:52:33;23.00;89.20
2010;DHT22;1008;47.404;8.502;2023-06-10T07:55:01;23.20;90.10
2010;DHT22;1008;47.404;8.502;2023-06-10T07:57:28;23.20;90.00
2010;DHT22;1008;47.404;8.502;2023-06-10T07:59:57;23.00;90.60
2010;DHT22;1008;47.404;8.502;2023-06-10T08:02:25;23.20;90.00
2010;DHT22;1008;47.404;8.502;2023-06-10T08:04:52;23.20;89.80
2010;DHT22;1008;47.404;8.502;2023-06-10T08:07:19;23.20;90.50
2010;DHT22;1008;47.404;8.502;2023-06-10T08:09:45;23.40;90.20
2010;DHT22;1008;47.404;8.502;2023-06-10T08:12:13;23.50;90.40
2010;DHT22;1008;47.404;8.502;2023-06-10T08:14:40;23.70;90.10
2010;DHT22;1008;47.404;8.502;2023-06-10T08:17:07;23.70;90.10
2010;DHT22;1008;47.404;8.502;2023-06-10T08:19:34;23.50;89.10
2010;DHT22;1008;47.404;8.502;2023-06-10T08:22:00;23.60;89.40
2010;DHT22;1008;47.404;8.502;2023-06-10T08:24:27;23.70;90.00
2010;DHT22;1008;47.404;8.502;2023-06-10T08:26:54;23.50;88.70
2010;DHT22;1008;47.404;8.502;2023-06-10T08:29:23;23.70;88.90
2010;DHT22;1008;47.404;8.502;2023-06-10T08:31:50;24.00;87.40
2010;DHT22;1008;47.404;8.502;2023-06-10T08:34:17;24.20;88.40
2010;DHT22;1008;47.404;8.502;2023-06-10T08:36:44;24.60;90.50
2010;DHT22;1008;47.404;8.502;2023-06-10T08:39:10;24.70;86.40
2010;DHT22;1008;47.404;8.502;2023-06-10T08:41:42;24.50;86.60
2010;DHT22;1008;47.404;8.502;2023-06-10T08:44:12;24.50;87.00
2010;DHT22;1008;47.404;8.502;2023-06-10T08:46:46;24.70;87.50
2010;DHT22;1008;47.404;8.502;2023-06-10T08:49:17;24.80;87.30
2010;DHT22;1008;47.404;8.502;2023-06-10T08:51:48;24.80;84.70
2010;DHT22;1008;47.404;8.502;2023-06-10T08:54:20;25.00;85.60
2010;DHT22;1008;47.404;8.502;2023-06-10T08:56:49;25.00;86.10
2010;DHT22;1008;47.404;8.502;2023-06-10T08:59:17;24.90;86.70
2010;DHT22;1008;47.404;8.502;2023-06-10T09:01:46;25.20;86.90
2010;DHT22;1008;47.404;8.502;2023-06-10T09:04:13;25.40;84.50
2010;DHT22;1008;47.404;8.502;2023-06-10T09:06:41;25.40;84.30
2010;DHT22;1008;47.404;8.502;2023-06-10T09:09:08;25.30;83.40
2010;DHT22;1008;47.404;8.502;2023-06-10T09:11:37;25.50;83.80
2010;DHT22;1008;47.404;8.502;2023-06-10T09:14:04;25.70;81.60
2010;DHT22;1008;47.404;8.502;2023-06-10T09:16:31;26.00;83.10
2010;DHT22;1008;47.404;8.502;2023-06-10T09:18:59;26.00;80.80
2010;DHT22;1008;47.404;8.502;2023-06-10T09:21:26;26.60;79.60
2010;DHT22;1008;47.404;8.502;2023-06-10T09:23:53;26.70;80.50
2010;DHT22;1008;47.404;8.502;2023-06-10T09:26:20;26.40;78.40
2010;DHT22;1008;47.404;8.502;2023-06-10T09:29:01;26.20;78.30
2010;DHT22;1008;47.404;8.502;2023-06-10T09:31:29;26.50;82.50
2010;DHT22;1008;47.404;8.502;2023-06-10T09:34:06;26.50;77.60
2010;DHT22;1008;47.404;8.502;2023-06-10T09:36:33;26.50;79.10
2010;DHT22;1008;47.404;8.502;2023-06-10T09:39:00;26.70;78.00
2010;DHT22;1008;47.404;8.502;2023-06-10T09:41:32;26.90;75.30
2010;DHT22;1008;47.404;8.502;2023-06-10T09:43:59;27.20;77.40
2010;DHT22;1008;47.404;8.502;2023-06-10T09:46:31;27.50;75.60
2010;DHT22;1008;47.404;8.502;2023-06-10T09:48:58;27.70;73.70
2010;DHT22;1008;47.404;8.502;2023-06-10T09:51:27;27.70;75.60
2010;DHT22;1008;47.404;8.502;2023-06-10T09:53:54;27.80;76.00
2010;DHT22;1008;47.404;8.502;2023-06-10T09:56:21;27.50;74.90
2010;DHT22;1008;47.404;8.502;2023-06-10T09:58:53;27.10;75.90
2010;DHT22;1008;47.404;8.502;2023-06-10T10:01:19;27.30;73.50
2010;DHT22;1008;47.404;8.502;2023-06-10T10:03:47;27.50;77.30
2010;DHT22;1008;47.404;8.502;2023-06-10T10:06:15;27.80;74.20
2010;DHT22;1008;47.404;8.502;2023-06-10T10:08:43;27.80;70.40
2010;DHT22;1008;47.404;8.502;2023-06-10T10:11:11;27.90;70.60
2010;DHT22;1008;47.404;8.502;2023-06-10T10:13:39;28.20;69.80
2010;DHT22;1008;47.404;8.502;2023-06-10T10:16:10;27.90;69.00
2010;DHT22;1008;47.404;8.502;2023-06-10T10:18:39;28.00;70.30
2010;DHT22;1008;47.404;8.502;2023-06-10T10:21:11;27.80;70.00
2010;DHT22;1008;47.404;8.502;2023-06-10T10:23:42;28.20;70.00
2010;DHT22;1008;47.404;8.502;2023-06-10T10:26:12;28.40;69.40
2010;DHT22;1008;47.404;8.502;2023-06-10T10:28:45;28.20;69.50
2010;DHT22;1008;47.404;8.502;2023-06-10T10:31:16;28.30;66.50
2010;DHT22;1008;47.404;8.502;2023-06-10T10:33:52;28.30;68.60
2010;DHT22;1008;47.404;8.502;2023-06-10T10:36:22;28.30;69.40
2010;DHT22;1008;47.404;8.502;2023-06-10T10:38:48;28.80;70.40
2010;DHT22;1008;47.404;8.502;2023-06-10T10:41:17;28.80;67.90
2010;DHT22;1008;47.404;8.502;2023-06-10T10:43:46;28.60;68.10
2010;DHT22;1008;47.404;8.502;2023-06-10T10:46:16;28.50;67.40
2010;DHT22;1008;47.404;8.502;2023-06-10T10:48:43;28.90;70.00
2010;DHT22;1008;47.404;8.502;2023-06-10T10:51:10;29.00;71.20
2010;DHT22;1008;47.404;8.502;2023-06-10T10:53:37;28.50;69.20
2010;DHT22;1008;47.404;8.502;2023-06-10T10:56:06;28.20;67.30
2010;DHT22;1008;47.404;8.502;2023-06-10T10:58:34;28.00;68.70
2010;DHT22;1008;47.404;8.502;2023-06-10T11:01:10;28.40;74.60
2010;DHT22;1008;47.404;8.502;2023-06-10T11:03:42;28.60;68.20
2010;DHT22;1008;47.404;8.502;2023-06-10T11:06:13;28.90;71.30
2010;DHT22;1008;47.404;8.502;2023-06-10T11:08:48;29.60;66.80
2010;DHT22;1008;47.404;8.502;2023-06-10T11:11:20;29.50;67.50
2010;DHT22;1008;47.404;8.502;2023-06-10T11:14:07;29.50;66.90
2010;DHT22;1008;47.404;8.502;2023-06-10T11:16:39;29.30;64.20
2010;DHT22;1008;47.404;8.502;2023-06-10T11:19:07;29.10;66.20
2010;DHT22;1008;47.404;8.502;2023-06-10T11:21:45;29.30;63.00
2010;DHT22;1008;47.404;8.502;2023-06-10T11:24:23;29.50;67.40
2010;DHT22;1008;47.404;8.502;2023-06-10T11:26:50;29.80;61.30
2010;DHT22;1008;47.404;8.502;2023-06-10T11:29:18;29.60;62.80
2010;DHT22;1008;47.404;8.502;2023-06-10T11:31:49;29.40;64.80
2010;DHT22;1008;47.404;8.502;2023-06-10T11:34:22;29.50;65.70
2010;DHT22;1008;47.404;8.502;2023-06-10T11:36:51;29.70;64.00
2010;DHT22;1008;47.404;8.502;2023-06-10T11:39:19;29.70;65.80
2010;DHT22;1008;47.404;8.502;2023-06-10T11:41:46;29.80;63.40
2010;DHT22;1008;47.404;8.502;2023-06-10T11:44:14;29.90;66.10
2010;DHT22;1008;47.404;8.502;2023-06-10T11:46:42;30.20;61.20
2010;DHT22;1008;47.404;8.502;2023-06-10T11:49:09;29.70;59.70
2010;DHT22;1008;47.404;8.502;2023-06-10T11:51:37;29.80;63.20
2010;DHT22;1008;47.404;8.502;2023-06-10T11:54:07;30.20;61.90
2010;DHT22;1008;47.404;8.502;2023-06-10T11:56:35;30.30;60.80
2010;DHT22;1008;47.404;8.502;2023-06-10T11:59:03;30.10;61.10
2010;DHT22;1008;47.404;8.502;2023-06-10T12:01:33;30.40;60.80
2010;DHT22;1008;47.404;8.502;2023-06-10T12:04:03;30.50;58.40
2010;DHT22;1008;47.404;8.502;2023-06-10T12:06:41;30.60;59.60
2010;DHT22;1008;47.404;8.502;2023-06-10T12:09:14;31.30;59.40
2010;DHT22;1008;47.404;8.502;2023-06-10T12:11:42;31.20;59.40
2010;DHT22;1008;47.404;8.502;2023-06-10T12:14:09;31.30;58.90
2010;DHT22;1008;47.404;8.502;2023-06-10T12:16:36;31.20;58.20
2010;DHT22;1008;47.404;8.502;2023-06-10T12:19:04;31.20;59.90
2010;DHT22;1008;47.404;8.502;2023-06-10T12:21:33;31.10;57.70
2010;DHT22;1008;47.404;8.502;2023-06-10T12:24:02;31.30;57.90
2010;DHT22;1008;47.404;8.502;2023-06-10T12:26:37;30.80;55.00
2010;DHT22;1008;47.404;8.502;2023-06-10T12:29:22;30.90;57.70
2010;DHT22;1008;47.404;8.502;2023-06-10T12:31:57;31.30;55.00
2010;DHT22;1008;47.404;8.502;2023-06-10T12:34:33;31.50;54.00
2010;DHT22;1008;47.404;8.502;2023-06-10T12:37:01;31.20;53.40
2010;DHT22;1008;47.404;8.502;2023-06-10T12:39:28;31.10;53.60
2010;DHT22;1008;47.404;8.502;2023-06-10T12:41:55;31.30;54.40
2010;DHT22;1008;47.404;8.502;2023-06-10T12:44:32;31.20;55.20
2010;DHT22;1008;47.404;8.502;2023-06-10T12:46:59;31.20;53.60
2010;DHT22;1008;47.404;8.502;2023-06-10T12:49:27;31.10;53.10
2010;DHT22;1008;47.404;8.502;2023-06-10T12:51:55;30.80;53.20
2010;DHT22;1008;47.404;8.502;2023-06-10T12:54:21;30.30;53.40
2010;DHT22;1008;47.404;8.502;2023-06-10T12:56:48;29.90;52.50
2010;DHT22;1008;47.404;8.502;2023-06-10T12:59:15;29.70;53.70
2010;DHT22;1008;47.404;8.502;2023-06-10T13:01:42;29.50;53.60
2010;DHT22;1008;47.404;8.502;2023-06-10T13:04:09;29.70;55.20
2010;DHT22;1008;47.404;8.502;2023-06-10T13:06:35;29.70;52.10
2010;DHT22;1008;47.404;8.502;2023-06-10T13:09:07;30.00;54.20
2010;DHT22;1008;47.404;8.502;2023-06-10T13:11:34;30.10;55.50
2010;DHT22;1008;47.404;8.502;2023-06-10T13:14:02;30.30;56.30
2010;DHT22;1008;47.404;8.502;2023-06-10T13:16:30;30.60;56.30
2010;DHT22;1008;47.404;8.502;2023-06-10T13:18:57;30.80;54.10
2010;DHT22;1008;47.404;8.502;2023-06-10T13:21:23;31.10;55.90
2010;DHT22;1008;47.404;8.502;2023-06-10T13:23:50;31.50;55.60
2010;DHT22;1008;47.404;8.502;2023-06-10T13:26:19;31.30;53.00
2010;DHT22;1008;47.404;8.502;2023-06-10T13:28:45;31.40;53.10
2010;DHT22;1008;47.404;8.502;2023-06-10T13:31:12;31.70;53.70
2010;DHT22;1008;47.404;8.502;2023-06-10T13:33:39;31.60;52.60
2010;DHT22;1008;47.404;8.502;2023-06-10T13:36:06;31.10;51.70
2010;DHT22;1008;47.404;8.502;2023-06-10T13:38:33;30.80;53.20
2010;DHT22;1008;47.404;8.502;2023-06-10T13:40:59;30.80;54.50
2010;DHT22;1008;47.404;8.502;2023-06-10T13:43:27;31.10;52.50
2010;DHT22;1008;47.404;8.502;2023-06-10T13:45:55;31.20;54.50
2010;DHT22;1008;47.404;8.502;2023-06-10T13:48:22;31.30;52.30
2010;DHT22;1008;47.404;8.502;2023-06-10T13:50:48;31.30;52.20
2010;DHT22;1008;47.404;8.502;2023-06-10T13:53:15;31.10;52.80
2010;DHT22;1008;47.404;8.502;2023-06-10T13:55:42;31.10;52.90
2010;DHT22;1008;47.404;8.502;2023-06-10T13:58:09;31.10;51.70
2010;DHT22;1008;47.404;8.502;2023-06-10T14:00:37;30.90;52.40
2010;DHT22;1008;47.404;8.502;2023-06-10T14:03:04;30.70;52.80
2010;DHT22;1008;47.404;8.502;2023-06-10T14:05:30;30.40;54.00
2010;DHT22;1008;47.404;8.502;2023-06-10T14:07:58;30.30;53.50
2010;DHT22;1008;47.404;8.502;2023-06-10T14:10:25;30.10;54.60
2010;DHT22;1008;47.404;8.502;2023-06-10T14:12:51;30.50;52.90
2010;DHT22;1008;47.404;8.502;2023-06-10T14:15:19;30.80;51.90
2010;DHT22;1008;47.404;8.502;2023-06-10T14:17:47;30.80;53.40
2010;DHT22;1008;47.404;8.502;2023-06-10T14:20:14;31.30;53.30
2010;DHT22;1008;47.404;8.502;2023-06-10T14:22:41;31.40;51.90
2010;DHT22;1008;47.404;8.502;2023-06-10T14:25:08;31.60;51.00
2010;DHT22;1008;47.404;8.502;2023-06-10T14:27:35;31.50;50.60
2010;DHT22;1008;47.404;8.502;2023-06-10T14:30:02;31.50;50.90
2010;DHT22;1008;47.404;8.502;2023-06-10T14:32:30;31.60;48.40
2010;DHT22;1008;47.404;8.502;2023-06-10T14:34:58;31.50;48.30
2010;DHT22;1008;47.404;8.502;2023-06-10T14:37:24;31.20;49.50
2010;DHT22;1008;47.404;8.502;2023-06-10T14:39:51;31.10;49.00
2010;DHT22;1008;47.404;8.502;2023-06-10T14:42:18;31.40;47.20
2010;DHT22;1008;47.404;8.502;2023-06-10T14:44:45;31.70;45.70
2010;DHT22;1008;47.404;8.502;2023-06-10T14:47:12;31.50;45.40
2010;DHT22;1008;47.404;8.502;2023-06-10T14:49:38;31.50;44.80
2010;DHT22;1008;47.404;8.502;2023-06-10T14:52:09;31.70;45.30
2010;DHT22;1008;47.404;8.502;2023-06-10T14:54:35;31.60;46.60
2010;DHT22;1008;47.404;8.502;2023-06-10T14:57:02;31.60;47.00
2010;DHT22;1008;47.404;8.502;2023-06-10T14:59:29;31.80;46.90
2010;DHT22;1008;47.404;8.502;2023-06-10T15:01:56;31.90;46.60
2010;DHT22;1008;47.404;8.502;2023-06-10T15:04:25;32.00;46.60
2010;DHT22;1008;47.404;8.502;2023-06-10T15:06:52;32.10;47.50
2010;DHT22;1008;47.404;8.502;2023-06-10T15:09:20;31.80;46.90
2010;DHT22;1008;47.404;8.502;2023-06-10T15:11:47;31.40;47.00
2010;DHT22;1008;47.404;8.502;2023-06-10T15:14:13;31.30;47.50
2010;DHT22;1008;47.404;8.502;2023-06-10T15:16:40;31.10;49.60
2010;DHT22;1008;47.404;8.502;2023-06-10T15:19:07;31.30;48.30
2010;DHT22;1008;47.404;8.502;2023-06-10T15:21:35;31.10;48.40
2010;DHT22;1008;47.404;8.502;2023-06-10T15:24:01;31.20;49.10
2010;DHT22;1008;47.404;8.502;2023-06-10T15:26:29;31.40;48.40
2010;DHT22;1008;47.404;8.502;2023-06-10T15:28:56;31.50;49.80
2010;DHT22;1008;47.404;8.502;2023-06-10T15:31:23;31.70;46.90
2010;DHT22;1008;47.404;8.502;2023-06-10T15:33:50;31.30;47.20
2010;DHT22;1008;47.404;8.502;2023-06-10T15:36:16;30.90;46.40
2010;DHT22;1008;47.404;8.502;2023-06-10T15:38:43;30.90;47.10
2010;DHT22;1008;47.404;8.502;2023-06-10T15:41:11;30.90;47.20
2010;DHT22;1008;47.404;8.502;2023-06-10T15:43:39;31.20;48.30
2010;DHT22;1008;47.404;8.502;2023-06-10T15:46:07;31.50;47.70
2010;DHT22;1008;47.404;8.502;2023-06-10T15:48:34;31.30;48.30
2010;DHT22;1008;47.404;8.502;2023-06-10T15:51:00;31.40;48.30
2010;DHT22;1008;47.404;8.502;2023-06-10T15:53:27;31.30;49.30
2010;DHT22;1008;47.404;8.502;2023-06-10T15:55:54;31.30;48.10
2010;DHT22;1008;47.404;8.502;2023-06-10T15:58:20;31.40;49.10
2010;DHT22;1008;47.404;8.502;2023-06-10T16:00:49;31.40;49.40
2010;DHT22;1008;47.404;8.502;2023-06-10T16:03:15;31.30;49.90
2010;DHT22;1008;47.404;8.502;2023-06-10T16:05:42;31.40;49.00